»·PEaware :: N32314 KBUR-KLAS

N32314 :: KBUR-KLAS

FLIGHT INFORMATION

Flight Status: Arrived
Operator: Privately registered:
United States
More flights under this callsign
Pilot: John O. (31453)
Aircraft: CIRRUS SR-22
(SR22)
More flights by this aircraft type
Origin: KBUR Bob Hope-Burbank
United States
Destination: KLAS McCarran Intl
United States
More flights between these airports :: More routes between these airports
Route: VNY3 DAG CRESO4
File this flight plan on PilotEdge
Remarks:
Altitude:
(Current/Filed)
10,000ft
Speed:
(Current/Filed)
145kts
Departed: 21-Feb-21 04:26 PM
Arrived: 21-Feb-21 06:02 PM
Distance/Time
Traveled:
194nm/1:36
Distance/Time
To Go:
Arrived

Flight Plot

Page will automatically refresh every two minutes.

Flight plan parsing failed; only flown route is shown


Map Options




Map Legend


Flown Route
Filed Route
Departure Airport
Arrival Airport
Navaid (VOR, NDB)
Fix

Horizontal Profiles

Position Reports

Time Latitude Longitude Heading Altitude Ground
Speed
21-Feb-21 16:03 34.199450 -118.359436 177 717ft 0kts
21-Feb-21 16:04 34.199450 -118.359436 177 717ft 0kts
21-Feb-21 16:05 34.199450 -118.359436 177 717ft 0kts
21-Feb-21 16:06 34.199450 -118.359436 177 717ft 0kts
21-Feb-21 16:07 34.199450 -118.359436 177 717ft 0kts
21-Feb-21 16:08 34.199450 -118.359436 177 717ft 0kts
21-Feb-21 16:09 34.199450 -118.359436 177 717ft 0kts
21-Feb-21 16:10 34.199450 -118.359436 177 717ft 0kts
21-Feb-21 16:11 34.199450 -118.359436 177 717ft 0kts
21-Feb-21 16:12 34.199450 -118.359436 177 717ft 0kts
21-Feb-21 16:13 34.199450 -118.359436 177 717ft 0kts
21-Feb-21 16:14 34.199450 -118.359436 177 717ft 0kts
21-Feb-21 16:15 34.199450 -118.359436 177 717ft 0kts
21-Feb-21 16:16 34.199450 -118.359436 177 717ft 0kts
21-Feb-21 16:17 34.199450 -118.359436 177 717ft 0kts
21-Feb-21 16:18 34.199450 -118.359436 177 717ft 0kts
21-Feb-21 16:18 34.199450 -118.359436 177 717ft 0kts
21-Feb-21 16:20 34.199034 -118.360259 228 716ft 7kts
21-Feb-21 16:21 34.198938 -118.363525 272 718ft 10kts
21-Feb-21 16:22 34.199104 -118.366532 270 724ft 9kts
21-Feb-21 16:22 34.198752 -118.368983 183 730ft 0kts
21-Feb-21 16:24 34.198752 -118.368983 183 730ft 0kts
21-Feb-21 16:25 34.198216 -118.368805 137 729ft 10kts
21-Feb-21 16:25 34.197560 -118.348366 97 1157ft 105kts
21-Feb-21 16:26 34.175428 -118.359728 226 2130ft 134kts
21-Feb-21 16:28 34.150630 -118.390892 227 3889ft 104kts
21-Feb-21 16:28 34.133606 -118.412319 227 4882ft 106kts
21-Feb-21 16:29 34.138999 -118.433467 351 5982ft 110kts
21-Feb-21 16:30 34.166565 -118.437311 353 6920ft 112kts
21-Feb-21 16:31 34.201228 -118.441445 353 8002ft 114kts
21-Feb-21 16:32 34.234491 -118.445440 353 8650ft 136kts
21-Feb-21 16:33 34.276469 -118.450574 353 8704ft 161kts
21-Feb-21 16:34 34.321835 -118.456331 353 8709ft 165kts
21-Feb-21 16:35 34.367711 -118.461890 4 8712ft 166kts
21-Feb-21 16:36 34.404569 -118.429110 51 8709ft 168kts
21-Feb-21 16:37 34.431988 -118.384250 52 8710ft 160kts
21-Feb-21 16:38 34.457734 -118.342803 53 8715ft 150kts
21-Feb-21 16:39 34.483137 -118.302073 52 8602ft 152kts
21-Feb-21 16:40 34.508449 -118.261500 52 8583ft 149kts
21-Feb-21 16:41 34.533405 -118.221417 52 8583ft 150kts
21-Feb-21 16:42 34.558586 -118.180951 52 8581ft 150kts
21-Feb-21 16:43 34.583888 -118.140291 52 8583ft 151kts
21-Feb-21 16:44 34.609259 -118.099487 52 8582ft 151kts
21-Feb-21 16:45 34.634861 -118.058737 57 8583ft 151kts
21-Feb-21 16:46 34.638174 -118.009001 82 8583ft 152kts
21-Feb-21 16:47 34.643710 -117.958014 82 8582ft 152kts
21-Feb-21 16:48 34.649516 -117.907283 82 8582ft 152kts
21-Feb-21 16:49 34.656089 -117.856393 75 8584ft 152kts
21-Feb-21 16:50 34.668023 -117.807077 72 8584ft 152kts
21-Feb-21 16:51 34.680487 -117.757771 72 8582ft 152kts
21-Feb-21 16:52 34.692913 -117.708668 72 8582ft 152kts
21-Feb-21 16:53 34.705363 -117.659478 72 8581ft 152kts
21-Feb-21 16:54 34.717806 -117.610332 72 8583ft 152kts
21-Feb-21 16:55 34.730259 -117.561126 72 8582ft 152kts
21-Feb-21 16:56 34.742702 -117.511982 72 8582ft 152kts
21-Feb-21 16:57 34.755164 -117.462777 72 8582ft 152kts
21-Feb-21 16:58 34.767589 -117.413711 72 8583ft 152kts
21-Feb-21 16:59 34.780066 -117.364449 72 8582ft 152kts
21-Feb-21 17:00 34.791125 -117.314794 77 8582ft 152kts
21-Feb-21 17:01 34.800300 -117.266227 76 8894ft 136kts
21-Feb-21 17:02 34.810065 -117.224307 74 9493ft 123kts
21-Feb-21 17:03 34.819259 -117.185435 73 10097ft 116kts
21-Feb-21 17:04 34.828152 -117.147827 73 10544ft 123kts
21-Feb-21 17:05 34.838664 -117.103192 73 10580ft 146kts
21-Feb-21 17:06 34.850255 -117.054157 74 10582ft 156kts
21-Feb-21 17:07 34.862468 -117.002415 74 10580ft 160kts
21-Feb-21 17:08 34.874807 -116.950148 73 10582ft 160kts
21-Feb-21 17:09 34.887018 -116.898346 73 10583ft 154kts
21-Feb-21 17:10 34.898605 -116.849225 73 10583ft 149kts
21-Feb-21 17:11 34.910026 -116.800763 74 10583ft 148kts
21-Feb-21 17:12 34.921379 -116.752563 73 10583ft 148kts
21-Feb-21 17:13 34.932715 -116.704469 73 10582ft 148kts
21-Feb-21 17:14 34.944106 -116.656113 73 10582ft 148kts
21-Feb-21 17:15 34.955424 -116.608058 73 10582ft 148kts
21-Feb-21 17:16 34.966367 -116.559797 48 10580ft 147kts
21-Feb-21 17:17 34.988342 -116.518722 64 10582ft 147kts
21-Feb-21 17:18 35.008248 -116.474985 62 10582ft 147kts
21-Feb-21 17:19 35.027061 -116.430309 61 10583ft 148kts
21-Feb-21 17:20 35.046290 -116.385951 62 10582ft 148kts
21-Feb-21 17:21 35.065684 -116.341398 61 10585ft 151kts
21-Feb-21 17:22 35.085865 -116.295050 61 10611ft 154kts
21-Feb-21 17:23 35.106091 -116.248513 61 10628ft 156kts
21-Feb-21 17:24 35.126555 -116.201498 61 10628ft 157kts
21-Feb-21 17:25 35.147189 -116.154404 61 10628ft 156kts
21-Feb-21 17:26 35.167504 -116.107331 62 10627ft 156kts
21-Feb-21 17:27 35.187889 -116.060306 61 10629ft 156kts
21-Feb-21 17:28 35.208371 -116.013092 61 10629ft 157kts
21-Feb-21 17:29 35.228787 -115.966008 61 10629ft 157kts
21-Feb-21 17:30 35.249154 -115.919029 61 10628ft 153kts
21-Feb-21 17:31 35.268950 -115.873374 62 10629ft 151kts
21-Feb-21 17:32 35.288684 -115.828149 61 10629ft 151kts
21-Feb-21 17:33 35.309341 -115.783555 41 10629ft 150kts
21-Feb-21 17:34 35.342560 -115.752736 46 10628ft 150kts
21-Feb-21 17:35 35.370055 -115.714220 46 10628ft 150kts
21-Feb-21 17:36 35.398167 -115.676495 47 10617ft 151kts
21-Feb-21 17:37 35.426445 -115.638258 47 10584ft 151kts
21-Feb-21 17:38 35.454650 -115.600112 47 10583ft 150kts
21-Feb-21 17:39 35.482859 -115.561966 47 10582ft 150kts
21-Feb-21 17:40 35.510945 -115.523966 47 10582ft 150kts
21-Feb-21 17:41 35.538894 -115.486133 47 10582ft 149kts
21-Feb-21 17:42 35.566890 -115.448193 47 10582ft 150kts
21-Feb-21 17:43 35.594905 -115.410196 47 10583ft 150kts
21-Feb-21 17:44 35.622936 -115.372129 47 10583ft 150kts
21-Feb-21 17:45 35.651047 -115.333946 47 10582ft 150kts
21-Feb-21 17:46 35.679113 -115.295813 47 10583ft 150kts
21-Feb-21 17:47 35.707273 -115.257523 47 10512ft 155kts
21-Feb-21 17:48 35.737874 -115.215882 47 9914ft 168kts
21-Feb-21 17:49 35.768275 -115.174444 47 9303ft 150kts
21-Feb-21 17:50 35.801664 -115.148284 22 8707ft 141kts
21-Feb-21 17:51 35.837875 -115.129431 22 8108ft 141kts
21-Feb-21 17:52 35.874075 -115.110629 22 7503ft 140kts
21-Feb-21 17:53 35.910430 -115.092967 8 6907ft 140kts
21-Feb-21 17:54 35.949293 -115.088568 3 6308ft 140kts
21-Feb-21 17:55 35.988117 -115.087987 349 5707ft 139kts
21-Feb-21 17:56 36.024743 -115.101163 325 5029ft 132kts
21-Feb-21 17:57 36.053184 -115.127240 322 4022ft 123kts
21-Feb-21 17:58 36.082720 -115.145673 355 3025ft 121kts
21-Feb-21 17:59 36.107874 -115.142315 310 2661ft 73kts
21-Feb-21 18:00 36.099206 -115.156689 201 2121ft 56kts
21-Feb-21 18:01 36.094167 -115.160773 299 2112ft 0kts
21-Feb-21 18:02 36.097531 -115.160144 356 2101ft 14kts
21-Feb-21 18:03 36.098337 -115.161199 109 2099ft 0kts

Navigation Log

Ident Type
Flight plan parsing failed, navigation log unavailable